Time;durP1;ratioP1;P1;durP2;ratioP2;P2;SDS_P1;SDS_P2;PMS_P1;PMS_P2;Temp;Humidity;BMP_temperature;BMP_pressure;BME280_temperature;BME280_humidity;BME280_pressure;Samples;Min_cycle;Max_cycle;Signal;HPM_P1;HPM_P2
2022/11/23 00:01:33;;;;;;;10.23;2.67;;;10.00;99.90;;;;;;5073727;28;20222;-70
2022/11/23 00:04:05;;;;;;;13.00;2.80;;;10.10;99.90;;;;;;5073576;28;20246;-70
2022/11/23 00:06:31;;;;;;;10.40;2.67;;;10.10;99.90;;;;;;5073283;28;20176;-70
2022/11/23 00:08:59;;;;;;;12.43;2.93;;;10.10;99.90;;;;;;5073472;28;20222;-70
2022/11/23 00:11:27;;;;;;;11.00;3.00;;;10.10;99.90;;;;;;5073419;28;20204;-70
2022/11/23 00:13:54;;;;;;;9.20;2.83;;;10.00;99.90;;;;;;5072799;28;20247;-69
2022/11/23 00:16:22;;;;;;;6.70;2.50;;;9.90;99.90;;;;;;5073279;28;20179;-69
2022/11/23 00:18:50;;;;;;;10.17;2.27;;;9.90;99.90;;;;;;5071993;28;20260;-69
2022/11/23 00:21:17;;;;;;;12.00;3.00;;;9.90;99.90;;;;;;5073174;28;20640;-69
2022/11/23 00:23:44;;;;;;;8.00;2.97;;;9.80;99.90;;;;;;5073261;28;20168;-70
2022/11/23 00:26:10;;;;;;;8.97;2.37;;;9.90;99.90;;;;;;5073300;28;20183;-70
2022/11/23 00:28:38;;;;;;;8.40;2.30;;;9.90;99.90;;;;;;5072990;28;20172;-70
2022/11/23 00:31:05;;;;;;;11.57;2.80;;;9.90;99.90;;;;;;5069440;28;20711;-71
2022/11/23 00:33:31;;;;;;;10.57;2.90;;;10.00;99.90;;;;;;5073294;28;20280;-70
2022/11/23 00:36:03;;;;;;;10.17;2.33;;;10.00;99.90;;;;;;5072978;28;20707;-70
2022/11/23 00:38:29;;;;;;;17.13;3.30;;;9.90;99.90;;;;;;5073258;28;20173;-70
2022/11/23 00:41:09;;;;;;;12.90;2.70;;;10.00;99.90;;;;;;5071873;28;20184;-69
2022/11/23 00:43:35;;;;;;;12.90;2.73;;;10.00;99.90;;;;;;5072610;28;20202;-69
2022/11/23 00:46:06;;;;;;;16.13;2.90;;;10.00;99.90;;;;;;5071987;28;20628;-70
2022/11/23 00:48:32;;;;;;;15.13;2.70;;;10.00;99.90;;;;;;5073270;28;20172;-71
2022/11/23 00:51:00;;;;;;;8.63;2.40;;;10.00;99.90;;;;;;5072996;28;20219;-70
2022/11/23 00:53:28;;;;;;;8.00;2.30;;;10.00;99.90;;;;;;5073087;28;20168;-70
2022/11/23 00:55:56;;;;;;;10.87;2.70;;;10.10;99.90;;;;;;5072790;28;20193;-70
2022/11/23 00:58:22;;;;;;;9.43;2.30;;;10.10;99.90;;;;;;5072977;28;20195;-70
2022/11/23 01:00:48;;;;;;;11.50;2.67;;;10.10;99.90;;;;;;5073031;28;20257;-70
2022/11/23 01:03:18;;;;;;;10.13;2.40;;;10.10;99.90;;;;;;5072929;28;20177;-70
2022/11/23 01:05:43;;;;;;;11.23;2.50;;;10.10;99.90;;;;;;5073036;28;20165;-69
2022/11/23 01:08:09;;;;;;;13.07;2.83;;;10.00;99.90;;;;;;5072676;28;20179;-69
2022/11/23 01:10:34;;;;;;;8.97;2.63;;;10.00;99.90;;;;;;5072462;28;20173;-70
2022/11/23 01:13:00;;;;;;;11.43;2.63;;;10.00;99.90;;;;;;5072921;28;20179;-70
2022/11/23 01:15:26;;;;;;;7.97;2.37;;;10.00;99.90;;;;;;5072599;28;20169;-70
2022/11/23 01:17:52;;;;;;;13.37;2.80;;;10.00;99.90;;;;;;5072838;28;20632;-70
2022/11/23 01:20:17;;;;;;;9.50;2.60;;;9.90;99.90;;;;;;5088241;28;20260;-70
2022/11/23 01:22:43;;;;;;;10.27;2.57;;;9.90;99.90;;;;;;5072792;28;20169;-70
2022/11/23 01:25:09;;;;;;;10.10;2.53;;;9.80;99.90;;;;;;5072193;28;20180;-70
2022/11/23 01:27:34;;;;;;;14.20;2.63;;;9.90;99.90;;;;;;5072675;28;20176;-70
2022/11/23 01:30:00;;;;;;;8.67;2.70;;;9.90;99.90;;;;;;5072587;28;20251;-70
2022/11/23 01:32:25;;;;;;;9.13;2.77;;;9.90;99.90;;;;;;5087963;28;20762;-71
2022/11/23 01:34:57;;;;;;;8.47;2.13;;;9.80;99.90;;;;;;5092678;28;20246;-70
2022/11/23 01:37:22;;;;;;;13.30;3.03;;;9.90;99.90;;;;;;5092736;28;20176;-71
2022/11/23 01:39:48;;;;;;;9.53;3.07;;;9.90;99.90;;;;;;5091041;28;20176;-70
2022/11/23 01:42:13;;;;;;;13.80;2.67;;;9.90;99.90;;;;;;5092755;28;20198;-69
2022/11/23 01:44:42;;;;;;;11.23;3.53;;;9.90;99.90;;;;;;5092572;28;20623;-69
2022/11/23 01:47:08;;;;;;;9.20;2.77;;;10.00;99.90;;;;;;5092720;28;20642;-70
2022/11/23 01:49:43;;;;;;;10.97;3.27;;;9.90;99.90;;;;;;5092640;28;20168;-70
2022/11/23 01:52:14;;;;;;;14.47;2.80;;;10.00;99.90;;;;;;5092617;28;20207;-71
2022/11/23 01:54:47;;;;;;;10.57;2.77;;;10.00;99.90;;;;;;5093287;28;20168;-70
2022/11/23 01:57:19;;;;;;;12.37;3.20;;;10.10;99.90;;;;;;5096260;28;20259;-69
2022/11/23 01:59:46;;;;;;;15.97;3.37;;;10.00;99.90;;;;;;5096352;28;20196;-69
2022/11/23 02:02:13;;;;;;;14.23;3.67;;;10.10;99.90;;;;;;5096016;28;20164;-69
2022/11/23 02:04:42;;;;;;;8.00;2.57;;;10.10;99.90;;;;;;5095890;28;20164;-69
2022/11/23 02:07:08;;;;;;;13.20;2.30;;;10.10;99.90;;;;;;5094893;28;20172;-70
2022/11/23 02:09:35;;;;;;;15.07;3.07;;;10.10;99.90;;;;;;5095557;28;20180;-70
2022/11/23 02:12:00;;;;;;;10.63;3.17;;;10.00;99.90;;;;;;5095945;28;20694;-70
2022/11/23 02:14:27;;;;;;;12.70;2.97;;;10.00;99.90;;;;;;5077617;28;20180;-69
2022/11/23 02:16:53;;;;;;;12.37;2.77;;;10.00;99.90;;;;;;5095784;28;20176;-69
2022/11/23 02:19:29;;;;;;;9.30;2.43;;;10.00;99.90;;;;;;5095275;28;20720;-69
2022/11/23 02:21:57;;;;;;;11.07;2.80;;;10.10;99.90;;;;;;5095726;28;20164;-69
2022/11/23 02:24:34;;;;;;;10.87;2.60;;;10.00;99.90;;;;;;5095187;28;20275;-70
2022/11/23 02:27:01;;;;;;;9.23;2.93;;;10.10;99.90;;;;;;5095702;28;20646;-68
2022/11/23 02:29:27;;;;;;;7.87;2.57;;;10.00;99.90;;;;;;5095583;28;20172;-70
2022/11/23 02:31:54;;;;;;;10.43;2.73;;;10.00;99.90;;;;;;5095386;28;20232;-70
2022/11/23 02:34:19;;;;;;;10.03;2.60;;;10.00;99.90;;;;;;5095435;28;20258;-70
2022/11/23 02:36:53;;;;;;;10.70;2.77;;;9.90;99.90;;;;;;5095419;28;20697;-70
2022/11/23 02:39:28;;;;;;;10.73;2.67;;;9.90;99.90;;;;;;5095187;28;20228;-70
2022/11/23 02:41:54;;;;;;;11.33;2.77;;;9.90;99.90;;;;;;5095438;28;20178;-70
2022/11/23 02:44:51;;;;;;;12.53;3.00;;;9.90;99.90;;;;;;5095194;28;20168;-70
2022/11/23 02:47:19;;;;;;;7.37;2.77;;;9.90;99.90;;;;;;5063068;28;20176;-70
2022/11/23 02:49:46;;;;;;;9.90;2.70;;;9.90;99.90;;;;;;5095258;28;20529;-70
2022/11/23 02:52:12;;;;;;;11.90;3.20;;;9.90;99.90;;;;;;5094743;28;20204;-69
2022/11/23 02:54:38;;;;;;;8.27;3.03;;;9.90;99.90;;;;;;5094987;28;20160;-69
2022/11/23 02:57:07;;;;;;;16.30;3.50;;;9.90;99.90;;;;;;5094986;28;20225;-70
2022/11/23 02:59:33;;;;;;;17.20;3.10;;;9.90;99.90;;;;;;5094820;28;20199;-69
2022/11/23 03:02:05;;;;;;;15.40;3.47;;;9.90;99.90;;;;;;5095215;28;20164;-69
2022/11/23 03:04:31;;;;;;;15.33;3.30;;;9.90;99.90;;;;;;5094974;28;20171;-70
2022/11/23 03:06:57;;;;;;;11.67;3.07;;;9.90;99.90;;;;;;5094439;28;20176;-69
2022/11/23 03:09:24;;;;;;;13.90;2.90;;;9.90;99.90;;;;;;5094744;28;20632;-70
2022/11/23 03:11:51;;;;;;;11.30;3.10;;;9.90;99.90;;;;;;5094662;28;20206;-70
2022/11/23 03:14:16;;;;;;;13.23;2.97;;;9.90;99.90;;;;;;5094678;28;20171;-69
2022/11/23 03:16:42;;;;;;;11.20;3.07;;;9.90;99.90;;;;;;5094696;28;20247;-70
2022/11/23 03:19:10;;;;;;;11.47;2.87;;;9.80;99.90;;;;;;5094633;28;20255;-70
2022/11/23 03:21:38;;;;;;;11.03;3.40;;;9.90;99.90;;;;;;5094198;28;20250;-69
2022/11/23 03:24:04;;;;;;;11.60;3.10;;;9.90;99.90;;;;;;5076382;28;20164;-70
2022/11/23 03:26:30;;;;;;;12.20;3.00;;;9.90;99.90;;;;;;5094349;28;20230;-70
2022/11/23 03:28:55;;;;;;;12.03;3.03;;;9.90;99.90;;;;;;5094467;28;20618;-69
2022/11/23 03:31:21;;;;;;;9.80;3.43;;;9.90;99.90;;;;;;5093962;28;20226;-71
2022/11/23 03:33:52;;;;;;;10.80;3.00;;;9.90;99.90;;;;;;5094321;28;20174;-70
2022/11/23 03:36:18;;;;;;;16.00;2.87;;;10.10;99.90;;;;;;5094259;28;20339;-69
2022/11/23 03:38:46;;;;;;;10.40;2.70;;;10.00;99.90;;;;;;5094285;28;20631;-70
2022/11/23 03:41:12;;;;;;;13.90;2.73;;;9.90;99.90;;;;;;5093902;28;20208;-69
2022/11/23 03:43:43;;;;;;;14.03;2.97;;;9.90;99.90;;;;;;5094197;28;20164;-69
2022/11/23 03:46:09;;;;;;;11.70;2.53;;;9.90;99.90;;;;;;5077083;28;20183;-69
2022/11/23 03:48:34;;;;;;;9.80;2.70;;;9.80;99.90;;;;;;5094341;28;20168;-69
2022/11/23 03:51:00;;;;;;;14.00;3.20;;;9.80;99.90;;;;;;5093536;28;20675;-69
2022/11/23 03:53:25;;;;;;;11.37;3.17;;;9.80;99.90;;;;;;5093896;28;20176;-69
2022/11/23 03:55:54;;;;;;;14.83;3.20;;;9.80;99.90;;;;;;5093659;28;20186;-69
2022/11/23 03:58:22;;;;;;;14.30;2.87;;;9.70;99.90;;;;;;5093660;28;20184;-69
2022/11/23 04:00:48;;;;;;;15.27;3.83;;;9.60;99.90;;;;;;5093654;28;20657;-69
2022/11/23 04:03:14;;;;;;;18.33;3.37;;;9.50;99.90;;;;;;5093804;28;20176;-70
2022/11/23 04:05:39;;;;;;;14.13;3.17;;;9.40;99.90;;;;;;5092023;28;20194;-70
2022/11/23 04:08:05;;;;;;;10.00;2.83;;;9.30;99.90;;;;;;5093778;28;20168;-70
2022/11/23 04:10:30;;;;;;;12.47;3.43;;;9.20;99.90;;;;;;5093385;28;20172;-70
2022/11/23 04:12:56;;;;;;;9.50;2.80;;;9.20;99.90;;;;;;5092270;28;20605;-70
2022/11/23 04:15:22;;;;;;;15.77;3.33;;;9.20;99.90;;;;;;5092275;28;20172;-69
2022/11/23 04:17:47;;;;;;;13.50;3.20;;;9.20;99.90;;;;;;5091931;28;20207;-69
2022/11/23 04:20:13;;;;;;;18.00;3.87;;;9.10;99.90;;;;;;5092864;28;20168;-69
2022/11/23 04:22:38;;;;;;;15.60;3.20;;;9.20;99.90;;;;;;5093043;28;20199;-69
2022/11/23 04:25:04;;;;;;;13.93;3.17;;;9.20;99.90;;;;;;5093120;28;20182;-69
2022/11/23 04:27:30;;;;;;;8.97;2.90;;;9.30;99.90;;;;;;5093272;28;20168;-69
2022/11/23 04:29:56;;;;;;;9.97;2.93;;;9.30;99.90;;;;;;5093148;28;20182;-69
2022/11/23 04:32:21;;;;;;;19.67;4.20;;;9.30;99.90;;;;;;5092759;28;20222;-69
2022/11/23 04:34:47;;;;;;;16.27;3.43;;;9.30;99.90;;;;;;5092847;28;20196;-70
2022/11/23 04:37:13;;;;;;;11.67;3.20;;;9.30;99.90;;;;;;5093146;28;20513;-69
2022/11/23 04:39:39;;;;;;;14.97;3.40;;;9.30;99.90;;;;;;5093055;28;20279;-69
2022/11/23 04:42:04;;;;;;;14.40;3.30;;;9.30;99.90;;;;;;5092606;28;20188;-69
2022/11/23 04:44:30;;;;;;;15.17;3.20;;;9.30;99.90;;;;;;5093126;28;20168;-69
2022/11/23 04:46:59;;;;;;;16.73;3.33;;;9.30;99.90;;;;;;5093031;28;20642;-70
2022/11/23 04:49:24;;;;;;;12.57;3.23;;;9.30;99.90;;;;;;5074746;28;20222;-70
2022/11/23 04:51:50;;;;;;;14.90;3.77;;;9.30;99.90;;;;;;5092533;28;20235;-69
2022/11/23 04:54:15;;;;;;;9.07;2.70;;;9.30;99.90;;;;;;5092791;28;20171;-69
2022/11/23 04:56:41;;;;;;;16.77;3.50;;;9.30;99.90;;;;;;5092383;28;20243;-70
2022/11/23 04:59:09;;;;;;;11.20;2.97;;;9.30;99.90;;;;;;5092893;28;20194;-70
2022/11/23 05:01:35;;;;;;;13.27;3.07;;;9.30;99.90;;;;;;5092576;28;20242;-69
2022/11/23 05:04:01;;;;;;;12.97;3.60;;;9.20;99.90;;;;;;5092498;28;20182;-69
2022/11/23 05:06:26;;;;;;;11.37;3.37;;;9.10;99.90;;;;;;5092753;28;20178;-69
2022/11/23 05:08:52;;;;;;;13.27;2.83;;;9.10;99.90;;;;;;5092369;28;20631;-69
2022/11/23 05:11:19;;;;;;;15.23;3.33;;;9.00;99.90;;;;;;5092345;28;20206;-69
2022/11/23 05:13:45;;;;;;;9.60;2.90;;;9.00;99.90;;;;;;5074722;28;20178;-69
2022/11/23 05:16:10;;;;;;;17.57;3.40;;;8.90;99.90;;;;;;5091278;28;20529;-69
2022/11/23 05:18:39;;;;;;;12.67;3.30;;;8.80;99.90;;;;;;5074379;28;20183;-69
2022/11/23 05:21:07;;;;;;;13.90;3.40;;;8.80;99.90;;;;;;5092320;28;20164;-69
2022/11/23 05:23:33;;;;;;;12.67;3.20;;;8.70;99.90;;;;;;5091081;28;20176;-69
2022/11/23 05:25:58;;;;;;;12.67;3.03;;;8.70;99.90;;;;;;5091165;28;20799;-69
2022/11/23 05:28:24;;;;;;;18.63;3.20;;;8.70;99.90;;;;;;5091268;28;20187;-69
2022/11/23 05:30:50;;;;;;;11.83;2.67;;;8.70;99.90;;;;;;5095040;28;20191;-69
2022/11/23 05:33:15;;;;;;;16.73;3.60;;;8.60;99.90;;;;;;5096145;28;20619;-69
2022/11/23 05:35:41;;;;;;;9.60;2.83;;;8.60;99.90;;;;;;5095907;28;20168;-69
2022/11/23 05:38:06;;;;;;;13.33;2.90;;;8.60;99.90;;;;;;5095958;28;20175;-70
2022/11/23 05:40:32;;;;;;;13.60;2.80;;;8.50;99.90;;;;;;5096137;28;20176;-70
2022/11/23 05:42:58;;;;;;;18.23;4.00;;;8.50;99.90;;;;;;5096082;28;20183;-70
2022/11/23 05:45:25;;;;;;;13.53;2.90;;;8.50;99.90;;;;;;5095748;28;20174;-71
2022/11/23 05:47:56;;;;;;;13.60;3.37;;;8.50;99.90;;;;;;5096062;28;20178;-70
2022/11/23 05:50:25;;;;;;;12.50;4.57;;;8.50;99.90;;;;;;5095951;28;20233;-70
2022/11/23 05:52:50;;;;;;;11.13;3.20;;;8.40;99.90;;;;;;5094945;28;20203;-69
2022/11/23 05:55:16;;;;;;;10.20;2.67;;;8.40;99.90;;;;;;5094383;28;20172;-69
2022/11/23 05:58:02;;;;;;;11.63;3.43;;;8.40;99.90;;;;;;5095351;28;20176;-69
2022/11/23 06:00:31;;;;;;;11.53;2.80;;;8.30;99.90;;;;;;5094905;28;20180;-70
2022/11/23 06:03:00;;;;;;;15.43;2.90;;;8.30;99.90;;;;;;5095301;28;20592;-70
2022/11/23 06:05:27;;;;;;;10.87;3.00;;;8.30;99.90;;;;;;5095084;28;20168;-69
2022/11/23 06:07:53;;;;;;;15.47;3.17;;;8.30;99.90;;;;;;5095665;28;20178;-70
2022/11/23 06:10:19;;;;;;;15.60;3.30;;;8.30;99.90;;;;;;5094834;28;20167;-69
2022/11/23 06:12:44;;;;;;;14.60;3.67;;;8.30;99.90;;;;;;5094903;28;20679;-69
2022/11/23 06:15:11;;;;;;;12.23;3.10;;;8.30;99.90;;;;;;5094645;28;20245;-70
2022/11/23 06:17:36;;;;;;;13.93;3.47;;;8.30;99.90;;;;;;5094599;28;20666;-70
2022/11/23 06:20:06;;;;;;;12.60;3.47;;;8.30;99.90;;;;;;5094756;28;20172;-70
2022/11/23 06:22:32;;;;;;;12.60;2.83;;;8.30;99.90;;;;;;5094473;28;20707;-71
2022/11/23 06:24:57;;;;;;;13.07;3.63;;;8.30;99.90;;;;;;5095276;28;20207;-70
2022/11/23 06:27:26;;;;;;;12.57;3.17;;;8.20;99.90;;;;;;5094508;28;20206;-70
2022/11/23 06:29:51;;;;;;;13.97;4.50;;;8.20;99.90;;;;;;5092921;28;20179;-71
2022/11/23 06:32:17;;;;;;;14.27;4.07;;;8.20;99.90;;;;;;5094344;28;20223;-70
2022/11/23 06:34:43;;;;;;;8.37;3.50;;;8.10;99.90;;;;;;5092882;28;20172;-71
2022/11/23 06:37:09;;;;;;;13.93;3.40;;;8.10;99.90;;;;;;5093939;28;20221;-69
2022/11/23 06:39:34;;;;;;;12.73;3.03;;;8.10;99.90;;;;;;5094651;28;20192;-69
2022/11/23 06:42:00;;;;;;;12.97;3.57;;;8.10;99.90;;;;;;5093861;28;20168;-71
2022/11/23 06:44:26;;;;;;;14.43;3.73;;;8.00;99.90;;;;;;5093398;28;20246;-70
2022/11/23 06:46:51;;;;;;;11.37;3.73;;;8.00;99.90;;;;;;5093792;28;20168;-70
2022/11/23 06:49:19;;;;;;;17.33;3.63;;;8.00;99.90;;;;;;5094526;28;20283;-70
2022/11/23 06:51:45;;;;;;;16.07;3.67;;;7.90;99.90;;;;;;5092683;28;20694;-70
2022/11/23 06:54:11;;;;;;;13.87;5.67;;;7.90;99.90;;;;;;5093846;28;20171;-69
2022/11/23 06:56:39;;;;;;;12.53;3.43;;;7.90;99.90;;;;;;5092246;28;20176;-70
2022/11/23 06:59:04;;;;;;;12.40;4.20;;;7.80;99.90;;;;;;5092036;28;20192;-69
2022/11/23 07:01:31;;;;;;;15.87;3.70;;;7.80;99.90;;;;;;5093900;28;20186;-70
2022/11/23 07:03:57;;;;;;;16.27;3.60;;;7.70;99.90;;;;;;5093362;28;20206;-69
2022/11/23 07:06:29;;;;;;;24.47;4.60;;;7.70;99.90;;;;;;5092909;28;20196;-71
2022/11/23 07:08:54;;;;;;;10.00;3.17;;;7.70;99.90;;;;;;5093331;28;20164;-70
2022/11/23 07:11:20;;;;;;;6.10;2.43;;;7.60;99.90;;;;;;5093162;28;20257;-69
2022/11/23 07:13:46;;;;;;;11.50;3.03;;;7.60;99.90;;;;;;5092600;28;20160;-70
2022/11/23 07:16:12;;;;;;;14.87;3.40;;;7.60;99.90;;;;;;5092551;28;20172;-71
2022/11/23 07:18:37;;;;;;;11.83;3.77;;;7.60;99.90;;;;;;5092221;28;20229;-71
2022/11/23 07:21:03;;;;;;;16.03;3.63;;;7.60;99.90;;;;;;5093182;28;20168;-71
2022/11/23 07:23:28;;;;;;;13.60;3.80;;;7.60;99.90;;;;;;5092382;28;20633;-70
2022/11/23 07:25:54;;;;;;;12.77;3.77;;;7.50;99.90;;;;;;5092963;28;20168;-71
2022/11/23 07:28:22;;;;;;;11.03;3.50;;;7.60;99.90;;;;;;5076925;28;20177;-70
2022/11/23 07:30:50;;;;;;;15.37;4.10;;;7.50;99.90;;;;;;5091987;28;20199;-70
2022/11/23 07:33:16;;;;;;;20.03;3.70;;;7.60;99.90;;;;;;5092911;28;20292;-70
2022/11/23 07:35:41;;;;;;;13.70;3.90;;;7.60;99.90;;;;;;5092204;28;20168;-69
2022/11/23 07:38:13;;;;;;;13.30;3.83;;;7.60;99.90;;;;;;5091933;28;20168;-69
2022/11/23 07:40:39;;;;;;;14.80;3.93;;;7.60;99.90;;;;;;5072489;28;20168;-70
2022/11/23 07:43:06;;;;;;;18.90;3.83;;;7.70;99.90;;;;;;5071409;28;20941;-71
2022/11/23 07:45:37;;;;;;;9.90;3.70;;;7.70;99.90;;;;;;5075976;28;20180;-70
2022/11/23 07:48:07;;;;;;;18.70;3.70;;;7.70;99.90;;;;;;5090839;28;20176;-70
2022/11/23 07:50:34;;;;;;;14.47;3.87;;;7.70;99.90;;;;;;5087786;28;20635;-71
2022/11/23 07:53:04;;;;;;;17.13;4.37;;;7.70;99.90;;;;;;5074216;28;20212;-72
2022/11/23 07:55:31;;;;;;;14.17;4.33;;;7.70;99.90;;;;;;5086188;28;20177;-71
2022/11/23 07:57:57;;;;;;;11.67;3.30;;;8.00;99.90;;;;;;5080493;28;20288;-70
2022/11/23 08:00:24;;;;;;;12.03;3.60;;;8.20;99.90;;;;;;5085810;28;20164;-71
2022/11/23 08:02:50;;;;;;;16.20;3.97;;;8.60;99.90;;;;;;5074963;28;20169;-71
2022/11/23 08:05:16;;;;;;;11.37;2.93;;;9.10;99.90;;;;;;5092111;28;20591;-71
2022/11/23 08:07:42;;;;;;;13.37;4.10;;;9.50;99.90;;;;;;5084000;28;20180;-70
2022/11/23 08:10:08;;;;;;;13.83;3.57;;;9.90;99.90;;;;;;5081114;28;20249;-71
2022/11/23 08:12:34;;;;;;;10.00;2.90;;;10.20;99.90;;;;;;5091936;28;20654;-70
2022/11/23 08:14:59;;;;;;;14.00;3.13;;;10.40;99.90;;;;;;5074614;28;20169;-71
2022/11/23 08:17:25;;;;;;;12.17;3.37;;;10.20;99.90;;;;;;5082885;28;20229;-70
2022/11/23 08:19:51;;;;;;;9.87;2.93;;;9.70;99.90;;;;;;5083909;28;20164;-70
2022/11/23 08:22:17;;;;;;;13.37;3.80;;;9.40;99.90;;;;;;5099521;28;20532;-70
2022/11/23 08:24:43;;;;;;;10.97;2.77;;;9.00;99.90;;;;;;5090215;28;20672;-69
2022/11/23 08:27:08;;;;;;;14.17;3.30;;;8.80;99.90;;;;;;5087970;28;20247;-70
2022/11/23 08:29:34;;;;;;;11.13;3.00;;;8.60;99.90;;;;;;5077328;28;20172;-70
2022/11/23 08:31:59;;;;;;;11.07;3.33;;;8.60;99.90;;;;;;5090577;28;20236;-70
2022/11/23 08:34:28;;;;;;;9.40;2.93;;;8.50;99.90;;;;;;5091061;28;20221;-69
2022/11/23 08:36:54;;;;;;;8.90;3.10;;;8.50;99.90;;;;;;5090913;28;20202;-69
2022/11/23 08:39:20;;;;;;;10.50;3.10;;;8.60;99.90;;;;;;5086145;28;20176;-70
2022/11/23 08:41:45;;;;;;;8.43;3.20;;;8.50;99.90;;;;;;5085103;28;20186;-69
2022/11/23 08:44:11;;;;;;;11.27;3.77;;;8.50;99.90;;;;;;5106073;28;20265;-70
2022/11/23 08:46:37;;;;;;;12.70;3.40;;;8.60;99.90;;;;;;5089860;28;20176;-70
2022/11/23 08:49:04;;;;;;;9.70;3.10;;;8.60;99.90;;;;;;5073470;28;20212;-70
2022/11/23 08:51:33;;;;;;;11.20;3.43;;;8.60;99.90;;;;;;5093078;28;20225;-70
2022/11/23 08:53:59;;;;;;;5.87;2.40;;;8.80;99.90;;;;;;5098593;28;20274;-69
2022/11/23 08:56:24;;;;;;;7.80;2.70;;;8.90;99.90;;;;;;5099370;28;20267;-69
2022/11/23 08:58:50;;;;;;;8.87;3.00;;;8.90;99.90;;;;;;5106667;28;20282;-71
2022/11/23 09:01:17;;;;;;;8.97;3.10;;;8.90;99.90;;;;;;5099666;28;20764;-69
2022/11/23 09:03:43;;;;;;;11.20;2.90;;;8.80;99.90;;;;;;5073985;28;20191;-69
2022/11/23 09:06:10;;;;;;;11.00;3.70;;;8.80;99.90;;;;;;5096606;28;20181;-70
2022/11/23 09:08:36;;;;;;;11.13;3.23;;;8.90;99.90;;;;;;5114054;28;20190;-71
2022/11/23 09:11:06;;;;;;;10.33;2.87;;;9.10;99.90;;;;;;5111610;28;20664;-70
2022/11/23 09:13:34;;;;;;;10.53;3.20;;;9.10;99.90;;;;;;5092404;28;20186;-70
2022/11/23 09:16:03;;;;;;;6.90;3.03;;;9.00;99.90;;;;;;5115871;28;20160;-70
2022/11/23 09:18:30;;;;;;;10.53;3.50;;;9.00;99.90;;;;;;5112822;28;20202;-70
2022/11/23 09:20:56;;;;;;;8.50;3.23;;;8.90;99.90;;;;;;5115973;28;20178;-69
2022/11/23 09:23:23;;;;;;;11.57;3.43;;;8.90;99.90;;;;;;5093970;28;20179;-68
2022/11/23 09:25:49;;;;;;;13.67;3.67;;;9.00;99.90;;;;;;5095313;28;20172;-69
2022/11/23 09:28:18;;;;;;;8.00;3.43;;;9.00;99.90;;;;;;5084115;28;20179;-70
2022/11/23 09:30:45;;;;;;;8.47;2.97;;;9.00;99.90;;;;;;5113118;28;20186;-71
2022/11/23 09:33:11;;;;;;;64.97;50.73;;;9.00;99.90;;;;;;5114966;28;20266;-70
2022/11/23 09:35:37;;;;;;;7.83;4.23;;;9.10;99.90;;;;;;5114753;28;20266;-70
2022/11/23 09:38:02;;;;;;;7.37;2.70;;;9.30;99.90;;;;;;5113385;28;20186;-68
2022/11/23 09:40:34;;;;;;;7.77;4.23;;;9.70;99.90;;;;;;5115306;28;20538;-69
2022/11/23 09:43:21;;;;;;;6.53;3.93;;;9.80;99.90;;;;;;5107413;28;20185;-69
2022/11/23 09:45:51;;;;;;;9.23;3.07;;;9.90;99.90;;;;;;5110711;28;20184;-71
2022/11/23 09:48:41;;;;;;;6.20;2.90;;;10.00;99.90;;;;;;5088868;28;20188;-71
2022/11/23 09:51:18;;;;;;;16.60;13.00;;;10.00;99.90;;;;;;5094424;28;20332;-70
2022/11/23 09:54:01;;;;;;;12.20;3.60;;;10.00;99.90;;;;;;5093546;28;20182;-71
2022/11/23 09:56:35;;;;;;;59.07;37.60;;;10.00;99.90;;;;;;5100400;28;20186;-69
2022/11/23 09:59:10;;;;;;;9.47;5.20;;;9.90;99.90;;;;;;5114763;28;20194;-69
2022/11/23 10:01:36;;;;;;;15.93;10.80;;;9.80;99.90;;;;;;5108711;28;20183;-71
2022/11/23 10:04:03;;;;;;;16.67;11.40;;;9.90;99.90;;;;;;5107240;28;20642;-70
2022/11/23 10:06:36;;;;;;;20.27;14.17;;;9.90;99.90;;;;;;5114695;28;20171;-70
2022/11/23 10:09:46;;;;;;;9.63;4.00;;;9.90;99.90;;;;;;5115126;28;20607;-70
2022/11/23 10:12:30;;;;;;;5.67;3.00;;;10.00;99.90;;;;;;5101663;28;20211;-70
2022/11/23 10:15:32;;;;;;;5.87;3.83;;;10.10;99.90;;;;;;5093234;28;20187;-70
2022/11/23 10:18:23;;;;;;;11.20;4.93;;;10.20;99.90;;;;;;5094446;28;20719;-70
2022/11/23 10:21:02;;;;;;;4.80;2.30;;;10.60;99.90;;;;;;5111365;28;20197;-70
2022/11/23 10:23:54;;;;;;;5.57;2.30;;;10.70;99.90;;;;;;5114693;28;20204;-73
2022/11/23 10:26:35;;;;;;;3.97;2.47;;;11.20;99.90;;;;;;5087760;28;20183;-71
2022/11/23 10:29:31;;;;;;;5.27;2.30;;;11.10;99.90;;;;;;5094904;28;20217;-71
2022/11/23 10:31:57;;;;;;;7.60;4.30;;;11.20;99.90;;;;;;5068703;28;20639;-70
2022/11/23 10:34:55;;;;;;;15.77;11.00;;;11.40;99.90;;;;;;5072093;28;20204;-70
2022/11/23 10:37:20;;;;;;;6.03;2.77;;;11.40;99.90;;;;;;5086722;28;20175;-69
2022/11/23 10:39:46;;;;;;;4.50;1.93;;;11.50;99.90;;;;;;5110935;28;20183;-71
2022/11/23 10:42:39;;;;;;;4.80;2.30;;;11.60;99.90;;;;;;5114826;28;20172;-72
2022/11/23 10:45:17;;;;;;;3.20;2.47;;;11.70;99.90;;;;;;5095791;28;20212;-71
2022/11/23 10:47:50;;;;;;;2.40;1.77;;;11.90;99.90;;;;;;5111393;28;20224;-71
2022/11/23 10:50:39;;;;;;;11.60;5.13;;;11.60;99.90;;;;;;5103885;28;20210;-71
2022/11/23 10:53:05;;;;;;;9.13;3.20;;;11.60;99.90;;;;;;5114324;28;20294;-69
2022/11/23 10:55:55;;;;;;;19.53;12.33;;;11.40;99.90;;;;;;5112321;28;20728;-69
2022/11/23 10:58:36;;;;;;;6.90;3.47;;;11.10;99.90;;;;;;5097116;28;20226;-68
2022/11/23 11:01:10;;;;;;;10.50;6.03;;;11.10;99.90;;;;;;5095965;28;20247;-71
2022/11/23 11:03:35;;;;;;;7.90;2.60;;;11.20;99.90;;;;;;5104499;28;20216;-69
2022/11/23 11:06:02;;;;;;;7.53;3.47;;;11.30;99.90;;;;;;5111446;28;20224;-70
2022/11/23 11:08:33;;;;;;;7.63;2.20;;;11.30;99.90;;;;;;5107986;28;20186;-70
2022/11/23 11:11:07;;;;;;;8.30;2.40;;;11.10;99.90;;;;;;5094140;28;20175;-69
2022/11/23 11:13:46;;;;;;;6.10;2.23;;;11.00;99.90;;;;;;5101594;28;20279;-70
2022/11/23 11:16:25;;;;;;;5.17;2.23;;;10.90;99.90;;;;;;5105980;28;20179;-70
2022/11/23 11:18:51;;;;;;;6.30;2.20;;;11.00;99.90;;;;;;5105492;28;20583;-68
2022/11/23 11:21:34;;;;;;;5.47;2.33;;;11.10;99.90;;;;;;5092192;28;20184;-70
2022/11/23 11:24:02;;;;;;;6.37;2.27;;;11.10;99.90;;;;;;5093550;28;20163;-68
2022/11/23 11:26:30;;;;;;;5.17;2.17;;;11.00;99.90;;;;;;5093305;28;20620;-70
2022/11/23 11:29:05;;;;;;;8.27;2.30;;;11.10;99.90;;;;;;5093132;28;20172;-70
2022/11/23 11:31:38;;;;;;;9.17;2.93;;;11.10;99.90;;;;;;5092369;28;20258;-70
2022/11/23 11:34:45;;;;;;;6.27;2.50;;;11.30;99.90;;;;;;5092990;28;20172;-70
2022/11/23 11:37:36;;;;;;;8.03;4.03;;;11.50;99.90;;;;;;5009606;28;20701;-70
2022/11/23 11:40:24;;;;;;;6.67;4.13;;;11.50;99.90;;;;;;5093526;28;20192;-70
2022/11/23 11:43:07;;;;;;;9.97;3.47;;;11.60;99.90;;;;;;5093273;28;20175;-71
2022/11/23 11:45:41;;;;;;;5.30;3.00;;;11.70;99.90;;;;;;5086282;28;20171;-70
2022/11/23 11:48:13;;;;;;;6.80;2.23;;;11.60;99.90;;;;;;5074383;28;20176;-70
2022/11/23 11:50:48;;;;;;;4.87;1.87;;;11.50;99.90;;;;;;5090800;28;20267;-71
2022/11/23 11:53:19;;;;;;;4.97;2.13;;;11.40;99.90;;;;;;5089735;28;20650;-71
2022/11/23 11:56:03;;;;;;;5.83;3.50;;;11.40;99.90;;;;;;5080703;28;20259;-70
2022/11/23 11:58:31;;;;;;;11.53;2.13;;;11.50;99.90;;;;;;5091980;28;20324;-69
2022/11/23 12:01:37;;;;;;;5.67;2.20;;;11.50;99.90;;;;;;5090807;28;20183;-72
2022/11/23 12:04:14;;;;;;;3.43;1.30;;;11.40;99.90;;;;;;5070678;28;20190;-71
2022/11/23 12:06:50;;;;;;;6.47;1.73;;;11.30;99.90;;;;;;5076145;28;20190;-72
2022/11/23 12:09:25;;;;;;;20.27;14.77;;;11.20;99.90;;;;;;5096051;28;20177;-72
2022/11/23 12:11:51;;;;;;;10.50;5.97;;;11.20;99.90;;;;;;5099701;28;20301;-70
2022/11/23 12:14:17;;;;;;;3.67;2.13;;;11.10;99.90;;;;;;5102359;28;20242;-71
2022/11/23 12:17:07;;;;;;;4.80;1.63;;;11.10;99.90;;;;;;5099907;28;20650;-69
2022/11/23 12:19:41;;;;;;;18.00;11.30;;;10.90;99.90;;;;;;5081827;28;20195;-70
2022/11/23 12:22:25;;;;;;;13.13;6.57;;;10.70;99.90;;;;;;5100727;28;20222;-70
2022/11/23 12:25:24;;;;;;;5.73;1.47;;;10.70;99.90;;;;;;5106388;28;20247;-70
2022/11/23 12:28:15;;;;;;;14.47;9.23;;;10.60;99.90;;;;;;5111970;28;20265;-70
2022/11/23 12:30:55;;;;;;;10.17;6.07;;;10.40;99.90;;;;;;5093155;28;20265;-72
2022/11/23 12:33:30;;;;;;;7.07;2.97;;;10.30;99.90;;;;;;5109856;28;20182;-71
2022/11/23 12:35:55;;;;;;;13.90;11.03;;;10.20;99.90;;;;;;5090011;28;20708;-73
2022/11/23 12:38:27;;;;;;;15.17;12.83;;;10.10;99.90;;;;;;5091355;28;20210;-70
2022/11/23 12:41:30;;;;;;;4.97;3.07;;;10.10;99.90;;;;;;5105566;28;20190;-71
2022/11/23 12:44:15;;;;;;;3.27;1.70;;;10.00;99.90;;;;;;5090939;28;20175;-73
2022/11/23 12:46:44;;;;;;;4.57;3.57;;;9.90;99.90;;;;;;5101976;28;20176;-71
2022/11/23 12:49:29;;;;;;;15.30;12.40;;;9.90;99.90;;;;;;5097893;28;20230;-72
2022/11/23 12:52:12;;;;;;;2.57;2.07;;;9.90;99.90;;;;;;5083072;28;20643;-71
2022/11/23 12:55:12;;;;;;;5.40;2.30;;;10.00;99.90;;;;;;5097778;28;20189;-70
2022/11/23 12:57:51;;;;;;;6.43;3.37;;;10.00;99.90;;;;;;5026450;28;20231;-71
2022/11/23 13:00:21;;;;;;;4.67;1.97;;;10.00;99.90;;;;;;5087438;28;20180;-69